Terminal Aerodrome Forecast
Issued by NWS Cleveland, OH

Home | Current Version | Previous Version | Graphics & Text | Print | Product List | Glossary Off
Versions: 1 2 3 4 5 6 7 8 9 10 11 12 13 14 15 16 17 18

000
FTUS41 KCLE 261356 AAB
TAFTOL
TAF AMD
KTOL 261356Z 2614/2712 23009KT P6SM SCT020
     FM261500 19012G20KT P6SM SCT020 BKN035
     FM262200 18015G22KT P6SM VCTS BKN040CB OVC080
      TEMPO 2622/2624 22018G30KT 4SM -TSRA BKN025CB OVC040
     FM270100 20012G20KT P6SM SCT020 BKN200
     FM270800 20012KT P6SM SCT008 BKN200=

USA.gov is the U.S. government's official web portal to all federal, state and local government web resources and services.